This is the latest recevied weather packets stored in our database for station/object N4OGP-WX. If no packets are shown the sender has not sent any weather packets the latest 10 day(s).
| Time | Temp. | Humidity | Pressure | Rain* | Wind** | Luminosity | Snow |
|---|---|---|---|---|---|---|---|
| 1777307356 | 23.89° C | 42% | 1020.4 hPa | 0 mm | - | - | - |
| 1777307296 | 26.67° C | 69% | 1015 hPa | 0 mm | - | - | - |
| 1777307236 | 26.67° C | 69% | 1015 hPa | 0 mm | - | - | - |
| 1777307176 | 26.67° C | 70% | 1015 hPa | 0 mm | - | - | - |
| 1777307086 | 26.67° C | 70% | 1015 hPa | 0 mm | - | - | - |
| 1777307026 | 23.89° C | 42% | 1020.4 hPa | 0 mm | - | - | - |
| 1777306966 | 26.11° C | 70% | 1014.9 hPa | 0 mm | - | - | - |
| 1777306876 | 23.89° C | 42% | 1020.4 hPa | 0 mm | - | - | - |
| 1777306816 | 26.11° C | 71% | 1014.9 hPa | 0 mm | - | - | - |
| 1777306726 | 23.89° C | 42% | 1020.4 hPa | 0 mm | - | - | - |
| 1777306666 | 23.89° C | 42% | 1020.4 hPa | 0 mm | - | - | - |
| 1777306606 | 26.11° C | 70% | 1014.9 hPa | 0 mm | - | - | - |
| 1777306546 | 23.89° C | 42% | 1020.4 hPa | 0 mm | - | - | - |
| 1777306456 | 23.89° C | 42% | 1020.4 hPa | 0 mm | - | - | - |
| 1777306366 | 23.89° C | 42% | 1020.4 hPa | 0 mm | - | - | - |
| 1777306306 | 23.89° C | 42% | 1020.4 hPa | 0 mm | - | - | - |
| 1777306246 | 23.89° C | 42% | 1020.4 hPa | 0 mm | - | - | - |
| 1777306186 | 26.11° C | 69% | 1015 hPa | 0 mm | - | - | - |
| 1777306126 | 23.89° C | 42% | 1020.4 hPa | 0 mm | - | - | - |
| 1777306066 | 26.11° C | 69% | 1015 hPa | 0 mm | - | - | - |
| 1777305976 | 23.89° C | 42% | 1020.4 hPa | 0 mm | - | - | - |
| 1777305916 | 26.11° C | 70% | 1014.9 hPa | 0 mm | - | - | - |
| 1777305856 | 26.11° C | 70% | 1015 hPa | 0 mm | - | - | - |
| 1777305796 | 26.11° C | 70% | 1015 hPa | 0 mm | - | - | - |
| 1777305736 | 23.89° C | 42% | 1020.4 hPa | 0 mm | - | - | - |
* Rain latest hour (hover to see other rain measurements)
** Current wind speed in m/s (hover to see current wind gust speed)